sensor_id;sensor_type;location;lat;lon;timestamp;temperature;humidity
12557;DHT22;6344;49.932;8.308;2023-12-04T00:00:26;-3.60;99.90
12557;DHT22;6344;49.932;8.308;2023-12-04T00:02:53;-3.50;99.90
12557;DHT22;6344;49.932;8.308;2023-12-04T00:05:20;-3.70;99.90
12557;DHT22;6344;49.932;8.308;2023-12-04T00:07:46;-3.80;99.90
12557;DHT22;6344;49.932;8.308;2023-12-04T00:10:14;-3.80;99.90
12557;DHT22;6344;49.932;8.308;2023-12-04T00:12:41;-3.90;99.90
12557;DHT22;6344;49.932;8.308;2023-12-04T00:15:09;-4.00;99.90
12557;DHT22;6344;49.932;8.308;2023-12-04T00:17:36;-4.00;99.90
12557;DHT22;6344;49.932;8.308;2023-12-04T00:20:05;-4.10;99.90
12557;DHT22;6344;49.932;8.308;2023-12-04T00:22:32;-4.20;99.90
12557;DHT22;6344;49.932;8.308;2023-12-04T00:24:59;-4.20;99.90
12557;DHT22;6344;49.932;8.308;2023-12-04T00:27:27;-4.10;99.90
12557;DHT22;6344;49.932;8.308;2023-12-04T00:29:54;-4.10;99.90
12557;DHT22;6344;49.932;8.308;2023-12-04T00:32:20;-3.90;99.90
12557;DHT22;6344;49.932;8.308;2023-12-04T00:34:47;-4.10;99.90
12557;DHT22;6344;49.932;8.308;2023-12-04T00:37:14;-4.30;99.90
12557;DHT22;6344;49.932;8.308;2023-12-04T00:39:40;-4.40;99.90
12557;DHT22;6344;49.932;8.308;2023-12-04T00:42:07;-4.40;99.90
12557;DHT22;6344;49.932;8.308;2023-12-04T00:44:35;-4.70;99.90
12557;DHT22;6344;49.932;8.308;2023-12-04T00:47:02;-4.80;99.90
12557;DHT22;6344;49.932;8.308;2023-12-04T00:49:28;-4.70;99.90
12557;DHT22;6344;49.932;8.308;2023-12-04T00:51:55;-4.50;99.90
12557;DHT22;6344;49.932;8.308;2023-12-04T00:54:22;-4.70;99.90
12557;DHT22;6344;49.932;8.308;2023-12-04T00:56:48;-4.90;99.90
12557;DHT22;6344;49.932;8.308;2023-12-04T00:59:15;-4.80;99.90
12557;DHT22;6344;49.932;8.308;2023-12-04T01:01:43;-5.00;99.90
12557;DHT22;6344;49.932;8.308;2023-12-04T01:04:09;-4.90;99.90
12557;DHT22;6344;49.932;8.308;2023-12-04T01:06:36;-5.00;99.90
12557;DHT22;6344;49.932;8.308;2023-12-04T01:09:03;-4.90;99.90
12557;DHT22;6344;49.932;8.308;2023-12-04T01:11:29;-4.80;99.90
12557;DHT22;6344;49.932;8.308;2023-12-04T01:13:56;-4.70;99.90
12557;DHT22;6344;49.932;8.308;2023-12-04T01:16:23;-4.50;99.90
12557;DHT22;6344;49.932;8.308;2023-12-04T01:18:51;-4.50;99.90
12557;DHT22;6344;49.932;8.308;2023-12-04T01:21:18;-4.70;99.90
12557;DHT22;6344;49.932;8.308;2023-12-04T01:23:45;-4.70;99.90
12557;DHT22;6344;49.932;8.308;2023-12-04T01:26:11;-4.70;99.90
12557;DHT22;6344;49.932;8.308;2023-12-04T01:28:38;-4.60;99.90
12557;DHT22;6344;49.932;8.308;2023-12-04T01:31:05;-4.70;99.90
12557;DHT22;6344;49.932;8.308;2023-12-04T01:33:32;-4.70;99.90
12557;DHT22;6344;49.932;8.308;2023-12-04T01:36:01;-4.60;99.90
12557;DHT22;6344;49.932;8.308;2023-12-04T01:38:28;-4.70;99.90
12557;DHT22;6344;49.932;8.308;2023-12-04T01:40:54;-4.70;99.90
12557;DHT22;6344;49.932;8.308;2023-12-04T01:43:21;-4.70;99.90
12557;DHT22;6344;49.932;8.308;2023-12-04T01:45:48;-4.80;99.90
12557;DHT22;6344;49.932;8.308;2023-12-04T01:48:15;-4.90;99.90
12557;DHT22;6344;49.932;8.308;2023-12-04T01:50:42;-4.70;99.90
12557;DHT22;6344;49.932;8.308;2023-12-04T01:53:11;-4.60;99.90
12557;DHT22;6344;49.932;8.308;2023-12-04T01:55:38;-4.80;99.90
12557;DHT22;6344;49.932;8.308;2023-12-04T01:58:05;-4.80;99.90
12557;DHT22;6344;49.932;8.308;2023-12-04T02:00:32;-4.50;99.90
12557;DHT22;6344;49.932;8.308;2023-12-04T02:02:59;-4.60;99.90
12557;DHT22;6344;49.932;8.308;2023-12-04T02:05:26;-4.70;99.90
12557;DHT22;6344;49.932;8.308;2023-12-04T02:07:53;-4.90;99.90
12557;DHT22;6344;49.932;8.308;2023-12-04T02:10:21;-5.00;99.90
12557;DHT22;6344;49.932;8.308;2023-12-04T02:12:48;-5.10;99.90
12557;DHT22;6344;49.932;8.308;2023-12-04T02:15:15;-4.90;99.90
12557;DHT22;6344;49.932;8.308;2023-12-04T02:17:43;-5.00;99.90
12557;DHT22;6344;49.932;8.308;2023-12-04T02:20:12;-5.00;99.90
12557;DHT22;6344;49.932;8.308;2023-12-04T02:22:38;-5.00;99.90
12557;DHT22;6344;49.932;8.308;2023-12-04T02:25:08;-4.90;99.90
12557;DHT22;6344;49.932;8.308;2023-12-04T02:27:39;-4.90;99.90
12557;DHT22;6344;49.932;8.308;2023-12-04T02:30:09;-5.00;99.90
12557;DHT22;6344;49.932;8.308;2023-12-04T02:32:40;-4.80;99.90
12557;DHT22;6344;49.932;8.308;2023-12-04T02:35:09;-4.80;99.90
12557;DHT22;6344;49.932;8.308;2023-12-04T02:40:59;-5.20;99.90
12557;DHT22;6344;49.932;8.308;2023-12-04T02:43:26;-5.20;99.90
12557;DHT22;6344;49.932;8.308;2023-12-04T02:45:53;-5.10;99.90
12557;DHT22;6344;49.932;8.308;2023-12-04T02:48:19;-5.10;99.90
12557;DHT22;6344;49.932;8.308;2023-12-04T02:50:46;-5.10;99.90
12557;DHT22;6344;49.932;8.308;2023-12-04T02:53:12;-5.30;99.90
12557;DHT22;6344;49.932;8.308;2023-12-04T02:55:39;-5.30;99.90
12557;DHT22;6344;49.932;8.308;2023-12-04T02:58:07;-5.30;99.90
12557;DHT22;6344;49.932;8.308;2023-12-04T03:00:34;-5.30;99.90
12557;DHT22;6344;49.932;8.308;2023-12-04T03:03:00;-5.30;99.90
12557;DHT22;6344;49.932;8.308;2023-12-04T03:05:27;-5.30;99.90
12557;DHT22;6344;49.932;8.308;2023-12-04T03:07:53;-5.10;99.90
12557;DHT22;6344;49.932;8.308;2023-12-04T03:10:20;-5.20;99.90
12557;DHT22;6344;49.932;8.308;2023-12-04T03:12:47;-5.20;99.90
12557;DHT22;6344;49.932;8.308;2023-12-04T03:15:15;-5.20;99.90
12557;DHT22;6344;49.932;8.308;2023-12-04T03:17:41;-5.30;99.90
12557;DHT22;6344;49.932;8.308;2023-12-04T03:20:09;-5.20;99.90
12557;DHT22;6344;49.932;8.308;2023-12-04T03:22:36;-4.90;99.90
12557;DHT22;6344;49.932;8.308;2023-12-04T03:25:04;-5.00;99.90
12557;DHT22;6344;49.932;8.308;2023-12-04T03:27:31;-4.80;99.90
12557;DHT22;6344;49.932;8.308;2023-12-04T03:29:57;-4.80;99.90
12557;DHT22;6344;49.932;8.308;2023-12-04T03:32:25;-4.80;99.90
12557;DHT22;6344;49.932;8.308;2023-12-04T03:34:52;-4.70;99.90
12557;DHT22;6344;49.932;8.308;2023-12-04T03:37:18;-4.50;99.90
12557;DHT22;6344;49.932;8.308;2023-12-04T03:39:45;-4.50;99.90
12557;DHT22;6344;49.932;8.308;2023-12-04T03:42:12;-4.60;99.90
12557;DHT22;6344;49.932;8.308;2023-12-04T03:44:39;-4.70;99.90
12557;DHT22;6344;49.932;8.308;2023-12-04T03:47:05;-4.70;99.90
12557;DHT22;6344;49.932;8.308;2023-12-04T03:49:33;-4.70;99.90
12557;DHT22;6344;49.932;8.308;2023-12-04T03:52:00;-4.50;99.90
12557;DHT22;6344;49.932;8.308;2023-12-04T03:54:26;-4.40;99.90
12557;DHT22;6344;49.932;8.308;2023-12-04T03:56:53;-4.40;99.90
12557;DHT22;6344;49.932;8.308;2023-12-04T03:59:19;-4.50;99.90
12557;DHT22;6344;49.932;8.308;2023-12-04T04:01:46;-4.40;99.90
12557;DHT22;6344;49.932;8.308;2023-12-04T04:04:13;-4.40;99.90
12557;DHT22;6344;49.932;8.308;2023-12-04T04:06:41;-4.40;99.90
12557;DHT22;6344;49.932;8.308;2023-12-04T04:09:07;-4.30;99.90
12557;DHT22;6344;49.932;8.308;2023-12-04T04:11:34;-4.30;99.90
12557;DHT22;6344;49.932;8.308;2023-12-04T04:14:01;-4.20;99.90
12557;DHT22;6344;49.932;8.308;2023-12-04T04:16:28;-4.10;99.90
12557;DHT22;6344;49.932;8.308;2023-12-04T04:18:54;-4.10;99.90
12557;DHT22;6344;49.932;8.308;2023-12-04T04:21:21;-4.00;99.90
12557;DHT22;6344;49.932;8.308;2023-12-04T04:23:49;-4.00;99.90
12557;DHT22;6344;49.932;8.308;2023-12-04T04:26:15;-4.00;99.90
12557;DHT22;6344;49.932;8.308;2023-12-04T04:28:42;-3.90;99.90
12557;DHT22;6344;49.932;8.308;2023-12-04T04:31:09;-4.00;99.90
12557;DHT22;6344;49.932;8.308;2023-12-04T04:33:35;-3.90;99.90
12557;DHT22;6344;49.932;8.308;2023-12-04T04:36:02;-3.90;99.90
12557;DHT22;6344;49.932;8.308;2023-12-04T04:38:29;-3.90;99.90
12557;DHT22;6344;49.932;8.308;2023-12-04T04:40:57;-3.90;99.90
12557;DHT22;6344;49.932;8.308;2023-12-04T04:43:24;-3.90;99.90
12557;DHT22;6344;49.932;8.308;2023-12-04T04:45:50;-4.00;99.90
12557;DHT22;6344;49.932;8.308;2023-12-04T04:48:17;-4.20;99.90
12557;DHT22;6344;49.932;8.308;2023-12-04T04:50:45;-4.20;99.90
12557;DHT22;6344;49.932;8.308;2023-12-04T04:53:11;-4.30;99.90
12557;DHT22;6344;49.932;8.308;2023-12-04T04:55:38;-4.20;99.90
12557;DHT22;6344;49.932;8.308;2023-12-04T04:58:06;-4.40;99.90
12557;DHT22;6344;49.932;8.308;2023-12-04T05:00:33;-4.40;99.90
12557;DHT22;6344;49.932;8.308;2023-12-04T05:02:59;-4.30;99.90
12557;DHT22;6344;49.932;8.308;2023-12-04T05:05:26;-4.30;99.90
12557;DHT22;6344;49.932;8.308;2023-12-04T05:07:52;-4.30;99.90
12557;DHT22;6344;49.932;8.308;2023-12-04T05:10:19;-4.30;99.90
12557;DHT22;6344;49.932;8.308;2023-12-04T05:12:46;-4.30;99.90
12557;DHT22;6344;49.932;8.308;2023-12-04T05:15:14;-4.30;99.90
12557;DHT22;6344;49.932;8.308;2023-12-04T05:17:40;-4.30;99.90
12557;DHT22;6344;49.932;8.308;2023-12-04T05:20:08;-4.20;99.90
12557;DHT22;6344;49.932;8.308;2023-12-04T05:22:35;-4.30;99.90
12557;DHT22;6344;49.932;8.308;2023-12-04T05:25:02;-4.40;99.90
12557;DHT22;6344;49.932;8.308;2023-12-04T05:27:28;-4.40;99.90
12557;DHT22;6344;49.932;8.308;2023-12-04T05:29:55;-4.40;99.90
12557;DHT22;6344;49.932;8.308;2023-12-04T05:32:23;-4.50;99.90
12557;DHT22;6344;49.932;8.308;2023-12-04T05:34:50;-4.50;99.90
12557;DHT22;6344;49.932;8.308;2023-12-04T05:37:16;-4.40;99.90
12557;DHT22;6344;49.932;8.308;2023-12-04T05:39:43;-4.50;99.90
12557;DHT22;6344;49.932;8.308;2023-12-04T05:42:09;-4.50;99.90
12557;DHT22;6344;49.932;8.308;2023-12-04T05:44:36;-4.40;99.90
12557;DHT22;6344;49.932;8.308;2023-12-04T05:47:03;-4.50;99.90
12557;DHT22;6344;49.932;8.308;2023-12-04T05:49:31;-4.40;99.90
12557;DHT22;6344;49.932;8.308;2023-12-04T05:51:58;-4.30;99.90
12557;DHT22;6344;49.932;8.308;2023-12-04T05:54:25;-4.30;99.90
12557;DHT22;6344;49.932;8.308;2023-12-04T05:56:51;-4.40;99.90
12557;DHT22;6344;49.932;8.308;2023-12-04T05:59:18;-4.30;99.90
12557;DHT22;6344;49.932;8.308;2023-12-04T06:01:45;-4.20;99.90
12557;DHT22;6344;49.932;8.308;2023-12-04T06:04:11;-4.30;99.90
12557;DHT22;6344;49.932;8.308;2023-12-04T06:06:39;-4.30;99.90
12557;DHT22;6344;49.932;8.308;2023-12-04T06:09:06;-4.30;99.90
12557;DHT22;6344;49.932;8.308;2023-12-04T06:11:32;-4.30;99.90
12557;DHT22;6344;49.932;8.308;2023-12-04T06:13:59;-4.40;99.90
12557;DHT22;6344;49.932;8.308;2023-12-04T06:16:26;-4.30;99.90
12557;DHT22;6344;49.932;8.308;2023-12-04T06:18:52;-4.20;99.90
12557;DHT22;6344;49.932;8.308;2023-12-04T06:21:19;-4.20;99.90
12557;DHT22;6344;49.932;8.308;2023-12-04T06:23:47;-4.10;99.90
12557;DHT22;6344;49.932;8.308;2023-12-04T06:26:15;-4.10;99.90
12557;DHT22;6344;49.932;8.308;2023-12-04T06:28:43;-4.00;99.90
12557;DHT22;6344;49.932;8.308;2023-12-04T06:31:11;-4.00;99.90
12557;DHT22;6344;49.932;8.308;2023-12-04T06:33:38;-4.10;99.90
12557;DHT22;6344;49.932;8.308;2023-12-04T06:36:06;-4.10;99.90
12557;DHT22;6344;49.932;8.308;2023-12-04T06:38:36;-4.00;99.90
12557;DHT22;6344;49.932;8.308;2023-12-04T06:41:06;-3.90;99.90
12557;DHT22;6344;49.932;8.308;2023-12-04T06:43:33;-3.90;99.90
12557;DHT22;6344;49.932;8.308;2023-12-04T06:46:01;-4.00;99.90
12557;DHT22;6344;49.932;8.308;2023-12-04T06:48:28;-4.00;99.90
12557;DHT22;6344;49.932;8.308;2023-12-04T06:50:54;-4.00;99.90
12557;DHT22;6344;49.932;8.308;2023-12-04T06:53:21;-4.00;99.90
12557;DHT22;6344;49.932;8.308;2023-12-04T06:55:48;-3.90;99.90
12557;DHT22;6344;49.932;8.308;2023-12-04T07:05:00;-3.80;99.90
12557;DHT22;6344;49.932;8.308;2023-12-04T07:07:28;-3.80;99.90
12557;DHT22;6344;49.932;8.308;2023-12-04T07:09:55;-3.70;99.90
12557;DHT22;6344;49.932;8.308;2023-12-04T07:12:21;-3.60;99.90
12557;DHT22;6344;49.932;8.308;2023-12-04T07:14:48;-3.50;99.90
12557;DHT22;6344;49.932;8.308;2023-12-04T07:17:15;-3.50;99.90
12557;DHT22;6344;49.932;8.308;2023-12-04T07:19:42;-3.40;99.90
12557;DHT22;6344;49.932;8.308;2023-12-04T07:22:10;-3.30;99.90
12557;DHT22;6344;49.932;8.308;2023-12-04T07:24:36;-3.30;99.90
12557;DHT22;6344;49.932;8.308;2023-12-04T07:27:04;-3.30;99.90
12557;DHT22;6344;49.932;8.308;2023-12-04T07:29:30;-3.20;99.90
12557;DHT22;6344;49.932;8.308;2023-12-04T07:31:57;-3.20;99.90
12557;DHT22;6344;49.932;8.308;2023-12-04T07:34:24;-3.10;99.90
12557;DHT22;6344;49.932;8.308;2023-12-04T07:36:50;-3.10;99.90
12557;DHT22;6344;49.932;8.308;2023-12-04T07:39:18;-3.10;99.90
12557;DHT22;6344;49.932;8.308;2023-12-04T07:41:46;-3.00;99.90
12557;DHT22;6344;49.932;8.308;2023-12-04T07:44:12;-3.00;99.90
12557;DHT22;6344;49.932;8.308;2023-12-04T07:46:39;-2.90;99.90
12557;DHT22;6344;49.932;8.308;2023-12-04T07:49:05;-2.90;99.90
12557;DHT22;6344;49.932;8.308;2023-12-04T07:51:32;-2.80;99.90
12557;DHT22;6344;49.932;8.308;2023-12-04T07:53:59;-2.80;99.90
12557;DHT22;6344;49.932;8.308;2023-12-04T07:56:27;-2.80;99.90
12557;DHT22;6344;49.932;8.308;2023-12-04T07:58:53;-2.80;99.90
12557;DHT22;6344;49.932;8.308;2023-12-04T08:01:20;-2.70;99.90
12557;DHT22;6344;49.932;8.308;2023-12-04T08:03:46;-2.70;99.90
12557;DHT22;6344;49.932;8.308;2023-12-04T08:06:13;-2.70;99.90
12557;DHT22;6344;49.932;8.308;2023-12-04T08:08:41;-2.60;99.90
12557;DHT22;6344;49.932;8.308;2023-12-04T08:11:09;-2.60;99.90
12557;DHT22;6344;49.932;8.308;2023-12-04T08:13:39;-2.60;99.90
12557;DHT22;6344;49.932;8.308;2023-12-04T08:16:13;-2.60;99.90
12557;DHT22;6344;49.932;8.308;2023-12-04T08:18:40;-2.60;99.90
12557;DHT22;6344;49.932;8.308;2023-12-04T08:21:07;-2.50;99.90
12557;DHT22;6344;49.932;8.308;2023-12-04T08:23:34;-2.40;99.90
12557;DHT22;6344;49.932;8.308;2023-12-04T08:26:01;-2.40;99.90
12557;DHT22;6344;49.932;8.308;2023-12-04T08:28:28;-2.40;99.90
12557;DHT22;6344;49.932;8.308;2023-12-04T08:30:56;-2.30;99.90
12557;DHT22;6344;49.932;8.308;2023-12-04T08:33:22;-2.30;99.90
12557;DHT22;6344;49.932;8.308;2023-12-04T08:35:49;-2.20;99.90
12557;DHT22;6344;49.932;8.308;2023-12-04T08:38:16;-2.20;99.90
12557;DHT22;6344;49.932;8.308;2023-12-04T08:40:43;-2.00;99.90
12557;DHT22;6344;49.932;8.308;2023-12-04T08:43:10;-2.00;99.90
12557;DHT22;6344;49.932;8.308;2023-12-04T08:45:36;-1.90;99.90
12557;DHT22;6344;49.932;8.308;2023-12-04T08:48:05;-1.90;99.90
12557;DHT22;6344;49.932;8.308;2023-12-04T08:50:31;-1.60;99.90
12557;DHT22;6344;49.932;8.308;2023-12-04T08:52:58;-1.70;99.90
12557;DHT22;6344;49.932;8.308;2023-12-04T08:55:25;-1.80;99.90
12557;DHT22;6344;49.932;8.308;2023-12-04T08:57:52;-1.70;99.90
12557;DHT22;6344;49.932;8.308;2023-12-04T09:01:58;-1.70;99.90
12557;DHT22;6344;49.932;8.308;2023-12-04T09:04:29;-1.60;99.90
12557;DHT22;6344;49.932;8.308;2023-12-04T09:06:55;-1.70;99.90
12557;DHT22;6344;49.932;8.308;2023-12-04T09:09:22;-1.60;99.90
12557;DHT22;6344;49.932;8.308;2023-12-04T09:11:49;-1.80;99.90
12557;DHT22;6344;49.932;8.308;2023-12-04T09:14:15;-1.60;99.90
12557;DHT22;6344;49.932;8.308;2023-12-04T09:16:42;-1.70;99.90
12557;DHT22;6344;49.932;8.308;2023-12-04T09:19:10;-1.60;99.90
12557;DHT22;6344;49.932;8.308;2023-12-04T09:21:37;-1.60;99.90
12557;DHT22;6344;49.932;8.308;2023-12-04T09:24:03;-1.60;99.90
12557;DHT22;6344;49.932;8.308;2023-12-04T09:26:30;-1.60;99.90
12557;DHT22;6344;49.932;8.308;2023-12-04T09:28:57;-1.70;99.90
12557;DHT22;6344;49.932;8.308;2023-12-04T09:31:23;-1.70;99.90
12557;DHT22;6344;49.932;8.308;2023-12-04T09:33:50;-1.70;99.90
12557;DHT22;6344;49.932;8.308;2023-12-04T09:36:18;-1.70;99.90
12557;DHT22;6344;49.932;8.308;2023-12-04T09:38:44;-1.60;99.90
12557;DHT22;6344;49.932;8.308;2023-12-04T09:41:12;-1.70;99.90
12557;DHT22;6344;49.932;8.308;2023-12-04T09:43:39;-1.60;99.90
12557;DHT22;6344;49.932;8.308;2023-12-04T09:46:07;-1.70;99.90
12557;DHT22;6344;49.932;8.308;2023-12-04T09:48:34;-1.50;99.90
12557;DHT22;6344;49.932;8.308;2023-12-04T09:51:02;-1.50;99.90
12557;DHT22;6344;49.932;8.308;2023-12-04T09:53:30;-1.50;99.90
12557;DHT22;6344;49.932;8.308;2023-12-04T09:55:59;-1.50;99.90
12557;DHT22;6344;49.932;8.308;2023-12-04T09:58:27;-1.50;99.90
12557;DHT22;6344;49.932;8.308;2023-12-04T10:00:54;-1.50;99.90
12557;DHT22;6344;49.932;8.308;2023-12-04T10:03:21;-1.40;99.90
12557;DHT22;6344;49.932;8.308;2023-12-04T10:05:48;-1.50;99.90
12557;DHT22;6344;49.932;8.308;2023-12-04T10:08:15;-1.40;99.90
12557;DHT22;6344;49.932;8.308;2023-12-04T10:10:43;-1.40;99.90
12557;DHT22;6344;49.932;8.308;2023-12-04T10:13:10;-1.30;99.90
12557;DHT22;6344;49.932;8.308;2023-12-04T10:15:46;-1.30;99.90
12557;DHT22;6344;49.932;8.308;2023-12-04T10:18:24;-1.30;99.90
12557;DHT22;6344;49.932;8.308;2023-12-04T10:20:52;-1.20;99.90
12557;DHT22;6344;49.932;8.308;2023-12-04T10:23:19;-1.00;99.90
12557;DHT22;6344;49.932;8.308;2023-12-04T10:25:48;-0.90;99.90
12557;DHT22;6344;49.932;8.308;2023-12-04T10:28:17;-0.90;99.90
12557;DHT22;6344;49.932;8.308;2023-12-04T10:30:45;-0.80;99.90
12557;DHT22;6344;49.932;8.308;2023-12-04T10:33:12;-0.70;99.90
12557;DHT22;6344;49.932;8.308;2023-12-04T10:35:39;-0.80;99.90
12557;DHT22;6344;49.932;8.308;2023-12-04T10:38:07;-0.70;99.90
12557;DHT22;6344;49.932;8.308;2023-12-04T10:40:35;-0.70;99.90
12557;DHT22;6344;49.932;8.308;2023-12-04T10:43:15;-0.70;99.90
12557;DHT22;6344;49.932;8.308;2023-12-04T10:45:43;-0.60;99.90
12557;DHT22;6344;49.932;8.308;2023-12-04T10:48:11;-0.40;99.90
12557;DHT22;6344;49.932;8.308;2023-12-04T10:50:39;-0.70;99.90
12557;DHT22;6344;49.932;8.308;2023-12-04T10:53:06;-0.60;99.90
12557;DHT22;6344;49.932;8.308;2023-12-04T10:55:34;-0.80;99.90
12557;DHT22;6344;49.932;8.308;2023-12-04T10:58:04;-1.00;99.90
12557;DHT22;6344;49.932;8.308;2023-12-04T11:00:35;-1.10;99.90
12557;DHT22;6344;49.932;8.308;2023-12-04T11:03:05;-1.20;99.90
12557;DHT22;6344;49.932;8.308;2023-12-04T11:05:37;-1.20;99.90
12557;DHT22;6344;49.932;8.308;2023-12-04T11:08:05;-1.30;99.90
12557;DHT22;6344;49.932;8.308;2023-12-04T11:10:33;-1.40;99.90
12557;DHT22;6344;49.932;8.308;2023-12-04T11:13:04;-1.50;99.90
12557;DHT22;6344;49.932;8.308;2023-12-04T11:15:37;-1.70;99.90
12557;DHT22;6344;49.932;8.308;2023-12-04T11:18:07;-1.70;99.90
12557;DHT22;6344;49.932;8.308;2023-12-04T11:20:39;-1.60;99.90
12557;DHT22;6344;49.932;8.308;2023-12-04T11:23:08;-1.60;99.90
12557;DHT22;6344;49.932;8.308;2023-12-04T11:25:35;-1.80;99.90
12557;DHT22;6344;49.932;8.308;2023-12-04T11:28:02;-1.80;99.90
12557;DHT22;6344;49.932;8.308;2023-12-04T11:30:30;-1.80;99.90
12557;DHT22;6344;49.932;8.308;2023-12-04T11:33:00;-1.70;99.90
12557;DHT22;6344;49.932;8.308;2023-12-04T11:35:26;-1.70;99.90
12557;DHT22;6344;49.932;8.308;2023-12-04T11:37:54;-1.70;99.90
12557;DHT22;6344;49.932;8.308;2023-12-04T11:40:20;-1.80;99.90
12557;DHT22;6344;49.932;8.308;2023-12-04T11:42:47;-1.70;99.90
12557;DHT22;6344;49.932;8.308;2023-12-04T11:45:18;-1.80;99.90
12557;DHT22;6344;49.932;8.308;2023-12-04T11:47:49;-1.70;99.90
12557;DHT22;6344;49.932;8.308;2023-12-04T11:50:18;-1.80;99.90
12557;DHT22;6344;49.932;8.308;2023-12-04T11:52:46;-1.80;99.90
12557;DHT22;6344;49.932;8.308;2023-12-04T11:55:16;-1.80;99.90
12557;DHT22;6344;49.932;8.308;2023-12-04T11:57:43;-1.80;99.90
12557;DHT22;6344;49.932;8.308;2023-12-04T12:00:20;-1.80;99.90
12557;DHT22;6344;49.932;8.308;2023-12-04T12:03:00;-1.50;99.90
12557;DHT22;6344;49.932;8.308;2023-12-04T12:05:33;-1.40;99.90
12557;DHT22;6344;49.932;8.308;2023-12-04T12:08:01;-1.40;99.90
12557;DHT22;6344;49.932;8.308;2023-12-04T12:10:29;-1.20;99.90
12557;DHT22;6344;49.932;8.308;2023-12-04T12:12:56;-1.40;99.90
12557;DHT22;6344;49.932;8.308;2023-12-04T12:15:23;-1.50;99.90
12557;DHT22;6344;49.932;8.308;2023-12-04T12:17:50;-1.60;99.90
12557;DHT22;6344;49.932;8.308;2023-12-04T12:20:17;-1.50;99.90
12557;DHT22;6344;49.932;8.308;2023-12-04T12:22:48;-1.50;99.90
12557;DHT22;6344;49.932;8.308;2023-12-04T12:25:15;-1.40;99.90
12557;DHT22;6344;49.932;8.308;2023-12-04T12:27:42;-1.30;99.90
12557;DHT22;6344;49.932;8.308;2023-12-04T12:30:09;-1.30;99.90
12557;DHT22;6344;49.932;8.308;2023-12-04T12:32:36;-1.50;99.90
12557;DHT22;6344;49.932;8.308;2023-12-04T12:35:03;-1.50;99.90
12557;DHT22;6344;49.932;8.308;2023-12-04T12:37:30;-1.30;99.90
12557;DHT22;6344;49.932;8.308;2023-12-04T12:39:58;-1.40;99.90
12557;DHT22;6344;49.932;8.308;2023-12-04T12:42:26;-1.40;99.90
12557;DHT22;6344;49.932;8.308;2023-12-04T12:44:53;-1.40;99.90
12557;DHT22;6344;49.932;8.308;2023-12-04T12:47:20;-1.40;99.90
12557;DHT22;6344;49.932;8.308;2023-12-04T12:49:47;-1.50;99.90
12557;DHT22;6344;49.932;8.308;2023-12-04T12:52:14;-1.50;99.90
12557;DHT22;6344;49.932;8.308;2023-12-04T12:54:41;-1.60;99.90
12557;DHT22;6344;49.932;8.308;2023-12-04T12:57:09;-1.50;99.90
12557;DHT22;6344;49.932;8.308;2023-12-04T12:59:37;-1.60;99.90
12557;DHT22;6344;49.932;8.308;2023-12-04T13:02:05;-1.60;99.90
12557;DHT22;6344;49.932;8.308;2023-12-04T13:04:35;-1.60;99.90
12557;DHT22;6344;49.932;8.308;2023-12-04T13:07:02;-1.50;99.90
12557;DHT22;6344;49.932;8.308;2023-12-04T13:09:31;-1.50;99.90
12557;DHT22;6344;49.932;8.308;2023-12-04T13:11:58;-1.30;99.90
12557;DHT22;6344;49.932;8.308;2023-12-04T13:14:26;-1.30;99.90
12557;DHT22;6344;49.932;8.308;2023-12-04T13:16:53;-1.30;99.90
12557;DHT22;6344;49.932;8.308;2023-12-04T13:19:21;-1.20;99.90
12557;DHT22;6344;49.932;8.308;2023-12-04T13:21:48;-1.10;99.90
12557;DHT22;6344;49.932;8.308;2023-12-04T13:24:14;-1.10;99.90
12557;DHT22;6344;49.932;8.308;2023-12-04T13:26:41;-1.10;99.90
12557;DHT22;6344;49.932;8.308;2023-12-04T13:29:08;-1.00;99.90
12557;DHT22;6344;49.932;8.308;2023-12-04T13:31:36;-1.10;99.90
12557;DHT22;6344;49.932;8.308;2023-12-04T13:34:03;-1.10;99.90
12557;DHT22;6344;49.932;8.308;2023-12-04T13:36:31;-1.00;99.90
12557;DHT22;6344;49.932;8.308;2023-12-04T13:38:58;-1.00;99.90
12557;DHT22;6344;49.932;8.308;2023-12-04T13:41:25;-1.00;99.90
12557;DHT22;6344;49.932;8.308;2023-12-04T13:44:09;-1.20;99.90
12557;DHT22;6344;49.932;8.308;2023-12-04T13:46:40;-1.20;99.90
12557;DHT22;6344;49.932;8.308;2023-12-04T13:49:06;-1.20;99.90
12557;DHT22;6344;49.932;8.308;2023-12-04T13:51:33;-1.30;99.90
12557;DHT22;6344;49.932;8.308;2023-12-04T13:54:03;-1.40;99.90
12557;DHT22;6344;49.932;8.308;2023-12-04T13:56:40;-1.40;99.90
12557;DHT22;6344;49.932;8.308;2023-12-04T13:59:17;-1.40;99.90
12557;DHT22;6344;49.932;8.308;2023-12-04T14:01:47;-1.30;99.90
12557;DHT22;6344;49.932;8.308;2023-12-04T14:04:15;-1.30;99.90
12557;DHT22;6344;49.932;8.308;2023-12-04T14:06:41;-1.30;99.90
12557;DHT22;6344;49.932;8.308;2023-12-04T14:09:08;-1.30;99.90
12557;DHT22;6344;49.932;8.308;2023-12-04T14:11:41;-1.30;99.90
12557;DHT22;6344;49.932;8.308;2023-12-04T14:14:08;-1.20;99.90
12557;DHT22;6344;49.932;8.308;2023-12-04T14:16:35;-1.30;99.90
12557;DHT22;6344;49.932;8.308;2023-12-04T14:19:03;-1.40;99.90
12557;DHT22;6344;49.932;8.308;2023-12-04T14:21:30;-1.30;99.90
12557;DHT22;6344;49.932;8.308;2023-12-04T14:23:56;-1.50;99.90
12557;DHT22;6344;49.932;8.308;2023-12-04T14:26:23;-1.40;99.90
12557;DHT22;6344;49.932;8.308;2023-12-04T14:28:50;-1.40;99.90
12557;DHT22;6344;49.932;8.308;2023-12-04T14:31:16;-1.30;99.90
12557;DHT22;6344;49.932;8.308;2023-12-04T14:33:43;-1.30;99.90
12557;DHT22;6344;49.932;8.308;2023-12-04T14:36:11;-1.40;99.90
12557;DHT22;6344;49.932;8.308;2023-12-04T14:38:38;-1.40;99.90
12557;DHT22;6344;49.932;8.308;2023-12-04T14:41:05;-1.60;99.90
12557;DHT22;6344;49.932;8.308;2023-12-04T14:43:35;-1.60;99.90
12557;DHT22;6344;49.932;8.308;2023-12-04T14:46:02;-1.60;99.90
12557;DHT22;6344;49.932;8.308;2023-12-04T14:48:29;-1.60;99.90
12557;DHT22;6344;49.932;8.308;2023-12-04T14:50:55;-1.60;99.90
12557;DHT22;6344;49.932;8.308;2023-12-04T14:53:23;-1.60;99.90
12557;DHT22;6344;49.932;8.308;2023-12-04T14:55:56;-1.60;99.90
12557;DHT22;6344;49.932;8.308;2023-12-04T14:58:55;-1.70;99.90
12557;DHT22;6344;49.932;8.308;2023-12-04T15:01:44;-1.70;99.90
12557;DHT22;6344;49.932;8.308;2023-12-04T15:04:28;-1.60;99.90
12557;DHT22;6344;49.932;8.308;2023-12-04T15:07:09;-1.60;99.90
12557;DHT22;6344;49.932;8.308;2023-12-04T15:10:09;-1.60;99.90
12557;DHT22;6344;49.932;8.308;2023-12-04T15:13:05;-1.60;99.90
12557;DHT22;6344;49.932;8.308;2023-12-04T15:16:01;-1.60;99.90
12557;DHT22;6344;49.932;8.308;2023-12-04T15:18:50;-1.60;99.90
12557;DHT22;6344;49.932;8.308;2023-12-04T15:21:39;-1.50;99.90
12557;DHT22;6344;49.932;8.308;2023-12-04T15:24:06;-1.60;99.90
12557;DHT22;6344;49.932;8.308;2023-12-04T15:26:34;-1.50;99.90
12557;DHT22;6344;49.932;8.308;2023-12-04T15:29:01;-1.50;99.90
12557;DHT22;6344;49.932;8.308;2023-12-04T15:31:30;-1.50;99.90
12557;DHT22;6344;49.932;8.308;2023-12-04T15:33:56;-1.50;99.90
12557;DHT22;6344;49.932;8.308;2023-12-04T15:36:22;-1.50;99.90
12557;DHT22;6344;49.932;8.308;2023-12-04T15:38:49;-1.60;99.90
12557;DHT22;6344;49.932;8.308;2023-12-04T15:41:16;-1.50;99.90
12557;DHT22;6344;49.932;8.308;2023-12-04T15:43:43;-1.60;99.90
12557;DHT22;6344;49.932;8.308;2023-12-04T15:46:13;-1.50;99.90
12557;DHT22;6344;49.932;8.308;2023-12-04T15:48:39;-1.50;99.90
12557;DHT22;6344;49.932;8.308;2023-12-04T15:51:06;-1.50;99.90
12557;DHT22;6344;49.932;8.308;2023-12-04T15:53:33;-1.50;99.90
12557;DHT22;6344;49.932;8.308;2023-12-04T15:55:58;-1.40;99.90
12557;DHT22;6344;49.932;8.308;2023-12-04T15:58:25;-1.50;99.90
12557;DHT22;6344;49.932;8.308;2023-12-04T16:00:52;-1.50;99.90